createdAt,value
2022-11-15T00:01:28.907Z,16.13
2022-11-15T00:04:14.132Z,16.12
2022-11-15T00:06:59.573Z,16.12
2022-11-15T00:09:46.134Z,16.11
2022-11-15T00:12:31.689Z,16.12
2022-11-15T00:15:17.139Z,16.13
2022-11-15T00:18:02.890Z,16.13
2022-11-15T00:20:48.061Z,16.11
2022-11-15T00:23:34.587Z,16.10
2022-11-15T00:26:19.989Z,16.11
2022-11-15T00:29:05.311Z,16.10
2022-11-15T00:31:50.767Z,16.10
2022-11-15T00:34:36.165Z,16.11
2022-11-15T00:37:21.277Z,16.10
2022-11-15T00:40:07.121Z,16.10
2022-11-15T00:42:52.542Z,16.09
2022-11-15T00:45:37.728Z,16.08
2022-11-15T00:48:23.549Z,16.08
2022-11-15T00:51:08.698Z,16.08
2022-11-15T00:53:54.034Z,16.08
2022-11-15T00:56:39.308Z,16.07
2022-11-15T00:59:24.690Z,16.07
2022-11-15T01:02:10.087Z,16.05
2022-11-15T01:04:55.246Z,16.05
2022-11-15T01:07:40.615Z,16.05
2022-11-15T01:10:26.866Z,16.05
2022-11-15T01:13:12.418Z,16.05
2022-11-15T01:15:57.805Z,16.05
2022-11-15T01:18:43.402Z,16.04
2022-11-15T01:21:28.623Z,16.04
2022-11-15T01:24:14.192Z,16.02
2022-11-15T01:26:59.850Z,16.02
2022-11-15T01:29:45.157Z,16.01
2022-11-15T01:32:30.538Z,16.02
2022-11-15T01:35:16.001Z,16.00
2022-11-15T01:38:01.358Z,16.01
2022-11-15T01:40:46.731Z,16.00
2022-11-15T01:43:35.071Z,15.97
2022-11-15T01:46:28.628Z,15.98
2022-11-15T01:49:16.417Z,15.98
2022-11-15T01:52:03.778Z,15.97
2022-11-15T01:54:57.077Z,15.96
2022-11-15T01:57:43.680Z,15.97
2022-11-15T02:00:30.565Z,15.95
2022-11-15T02:03:16.635Z,15.95
2022-11-15T02:06:03.348Z,15.94
2022-11-15T02:08:48.470Z,15.95
2022-11-15T02:11:33.857Z,15.93
2022-11-15T02:14:20.767Z,15.91
2022-11-15T02:17:41.399Z,15.91
2022-11-15T02:20:47.509Z,15.91
2022-11-15T02:23:51.408Z,15.91
2022-11-15T02:27:04.549Z,15.89
2022-11-15T02:30:13.671Z,15.87
2022-11-15T02:32:58.649Z,15.88
2022-11-15T02:35:59.725Z,15.88
2022-11-15T02:39:08.502Z,15.87
2022-11-15T02:42:32.702Z,15.86
2022-11-15T02:45:28.974Z,15.85
2022-11-15T02:48:16.039Z,15.84
2022-11-15T02:51:02.273Z,15.84
2022-11-15T02:53:47.222Z,15.84
2022-11-15T02:56:32.739Z,15.84
2022-11-15T02:59:30.894Z,15.82
2022-11-15T03:02:34.728Z,15.84
2022-11-15T03:05:49.971Z,15.82
2022-11-15T03:08:49.438Z,15.80
2022-11-15T03:11:38.738Z,15.79
2022-11-15T03:14:32.079Z,15.79
2022-11-15T03:17:21.786Z,15.79
2022-11-15T03:20:08.906Z,15.79
2022-11-15T03:22:57.067Z,15.76
2022-11-15T03:25:45.947Z,15.77
2022-11-15T03:28:40.653Z,15.77
2022-11-15T03:31:50.030Z,15.75
2022-11-15T03:34:39.229Z,15.85
2022-11-15T03:37:31.444Z,15.76
2022-11-15T03:40:18.692Z,15.73
2022-11-15T03:43:21.043Z,15.70
2022-11-15T03:46:29.082Z,15.69
2022-11-15T03:49:19.202Z,15.68
2022-11-15T03:52:05.173Z,15.69
2022-11-15T03:54:52.174Z,15.66
2022-11-15T03:57:37.882Z,15.67
2022-11-15T04:00:32.815Z,15.64
2022-11-15T04:03:26.425Z,15.64
2022-11-15T04:06:12.293Z,15.63
2022-11-15T04:08:57.647Z,15.61
2022-11-15T04:11:42.921Z,15.62
2022-11-15T04:14:29.283Z,15.61
2022-11-15T04:17:14.571Z,15.59
2022-11-15T04:20:29.034Z,15.59
2022-11-15T04:23:40.946Z,15.58
2022-11-15T04:26:26.496Z,15.56
2022-11-15T04:29:29.778Z,15.55
2022-11-15T04:32:15.136Z,15.53
2022-11-15T04:35:00.402Z,15.51
2022-11-15T04:37:49.313Z,15.50
2022-11-15T04:40:35.716Z,15.49
2022-11-15T04:43:21.066Z,15.47
2022-11-15T04:46:06.817Z,15.48
2022-11-15T04:48:58.048Z,15.46
2022-11-15T04:51:44.245Z,15.44
2022-11-15T04:54:30.602Z,15.43
2022-11-15T04:57:16.267Z,15.43
2022-11-15T05:00:04.489Z,15.41
2022-11-15T05:03:08.501Z,15.40
2022-11-15T05:05:53.895Z,15.39
2022-11-15T05:08:39.180Z,15.38
2022-11-15T05:11:24.720Z,15.37
2022-11-15T05:14:10.227Z,15.36
2022-11-15T05:16:55.725Z,15.35
2022-11-15T05:19:40.951Z,15.34
2022-11-15T05:22:26.462Z,15.34
2022-11-15T05:25:11.844Z,15.33
2022-11-15T05:27:57.246Z,15.31
2022-11-15T05:30:42.694Z,15.31
2022-11-15T05:33:29.313Z,15.30
2022-11-15T05:36:41.427Z,15.28
2022-11-15T05:39:27.511Z,15.27
2022-11-15T05:42:14.555Z,15.26
2022-11-15T05:45:00.086Z,15.24
2022-11-15T05:47:45.868Z,15.25
2022-11-15T05:50:31.532Z,15.25
2022-11-15T05:53:20.677Z,15.22
2022-11-15T05:56:07.549Z,15.24
2022-11-15T05:58:59.220Z,15.21
2022-11-15T06:01:45.500Z,15.22
2022-11-15T06:04:31.016Z,15.23
2022-11-15T06:07:16.403Z,15.22
2022-11-15T06:10:01.927Z,15.22
2022-11-15T06:12:47.393Z,15.22
2022-11-15T06:15:35.991Z,15.19
2022-11-15T06:18:21.320Z,15.07
2022-11-15T06:21:06.862Z,14.90
2022-11-15T06:23:52.182Z,14.70
2022-11-15T06:26:37.753Z,14.54
2022-11-15T06:29:23.274Z,14.40
2022-11-15T06:32:08.862Z,14.30
2022-11-15T06:34:53.848Z,14.23
2022-11-15T06:37:39.187Z,14.14
2022-11-15T06:40:24.492Z,14.10
2022-11-15T06:43:09.865Z,14.06
2022-11-15T06:45:55.317Z,13.97
2022-11-15T06:48:40.610Z,13.97
2022-11-15T06:51:25.831Z,13.94
2022-11-15T06:54:11.174Z,13.94
2022-11-15T06:56:56.638Z,13.92
2022-11-15T06:59:42.028Z,13.91
2022-11-15T07:02:27.625Z,13.92
2022-11-15T07:05:13.484Z,13.95
2022-11-15T07:07:59.206Z,13.84
2022-11-15T07:10:44.181Z,13.78
2022-11-15T07:13:34.311Z,13.69
2022-11-15T07:16:20.071Z,13.79
2022-11-15T07:19:05.605Z,13.81
2022-11-15T07:21:50.983Z,13.84
2022-11-15T07:24:36.259Z,13.93
2022-11-15T07:27:21.871Z,13.93
2022-11-15T07:30:08.218Z,13.91
2022-11-15T07:32:58.021Z,13.93
2022-11-15T07:35:43.829Z,14.00
2022-11-15T07:38:29.940Z,14.03
2022-11-15T07:41:15.247Z,14.05
2022-11-15T07:44:01.411Z,14.08
2022-11-15T07:46:46.555Z,14.12
2022-11-15T07:49:31.976Z,14.11
2022-11-15T07:52:17.458Z,14.07
2022-11-15T07:55:03.030Z,14.06
2022-11-15T07:57:48.386Z,14.06
2022-11-15T08:00:34.695Z,14.05
2022-11-15T08:03:20.161Z,14.06
2022-11-15T08:06:06.049Z,14.08
2022-11-15T08:08:51.322Z,14.07
2022-11-15T08:11:36.625Z,14.07
2022-11-15T08:14:23.060Z,14.04
2022-11-15T08:17:08.258Z,14.11
2022-11-15T08:19:53.645Z,14.22
2022-11-15T08:22:38.826Z,14.29
2022-11-15T08:25:27.372Z,14.38
2022-11-15T08:28:12.995Z,14.45
2022-11-15T08:30:58.610Z,14.47
2022-11-15T08:33:44.535Z,14.52
2022-11-15T08:36:34.834Z,14.54
2022-11-15T08:39:27.170Z,14.58
2022-11-15T08:42:15.748Z,14.59
2022-11-15T08:45:05.465Z,14.61
2022-11-15T08:47:54.254Z,14.61
2022-11-15T08:50:40.427Z,14.66
2022-11-15T08:53:26.102Z,14.69
2022-11-15T08:56:13.159Z,14.65
2022-11-15T08:58:58.395Z,14.71
2022-11-15T09:01:43.691Z,14.80
2022-11-15T09:04:28.946Z,14.87
2022-11-15T09:07:14.768Z,14.96
2022-11-15T09:10:00.844Z,15.05
2022-11-15T09:12:49.435Z,15.14
2022-11-15T09:15:34.697Z,15.27
2022-11-15T09:18:22.423Z,15.36
2022-11-15T09:21:08.580Z,15.50
2022-11-15T09:23:53.890Z,15.65
2022-11-15T09:26:39.476Z,15.76
2022-11-15T09:29:24.499Z,15.85
2022-11-15T09:32:10.153Z,15.94
2022-11-15T09:34:55.597Z,16.03
2022-11-15T09:37:41.010Z,16.13
2022-11-15T09:40:27.332Z,16.22
2022-11-15T09:43:21.975Z,16.30
2022-11-15T09:46:22.776Z,16.37
2022-11-15T09:49:22.262Z,16.45
2022-11-15T09:52:04.194Z,16.53
2022-11-15T09:54:53.231Z,16.51
2022-11-15T09:57:36.285Z,16.52
2022-11-15T10:03:19.552Z,16.41
2022-11-15T10:05:51.649Z,16.51
2022-11-15T10:08:55.916Z,16.61
2022-11-15T10:11:37.117Z,16.70
2022-11-15T10:14:21.409Z,16.79
2022-11-15T10:16:57.165Z,16.83
2022-11-15T10:20:05.600Z,16.89
2022-11-15T10:22:36.059Z,16.94
2022-11-15T10:25:27.336Z,16.98
2022-11-15T10:27:55.845Z,16.87
2022-11-15T10:30:23.142Z,16.91
2022-11-15T10:32:50.589Z,16.86
2022-11-15T10:35:29.334Z,16.92
2022-11-15T10:38:13.028Z,16.96
2022-11-15T10:40:41.298Z,17.03
2022-11-15T10:43:10.881Z,17.09
2022-11-15T10:45:39.448Z,17.07
2022-11-15T10:48:15.252Z,17.06
2022-11-15T10:50:44.366Z,17.13
2022-11-15T10:53:26.342Z,17.26
2022-11-15T10:55:55.731Z,17.24
2022-11-15T10:58:41.158Z,17.31
2022-11-15T11:01:18.424Z,17.41
2022-11-15T11:03:47.006Z,17.53
2022-11-15T11:06:16.516Z,17.61
2022-11-15T11:09:00.857Z,17.65
2022-11-15T11:11:46.412Z,17.67
2022-11-15T11:14:25.435Z,17.72
2022-11-15T11:16:55.375Z,17.77
2022-11-15T11:19:34.446Z,17.82
2022-11-15T11:22:13.364Z,17.87
2022-11-15T11:25:06.086Z,17.88
2022-11-15T11:27:51.901Z,17.90
2022-11-15T11:30:34.483Z,17.90
2022-11-15T11:33:22.981Z,17.94
2022-11-15T11:36:15.894Z,18.01
2022-11-15T11:38:51.433Z,18.17
2022-11-15T11:41:25.114Z,18.28
2022-11-15T11:44:10.339Z,18.35
2022-11-15T11:46:57.637Z,18.41
2022-11-15T11:49:43.227Z,18.48
2022-11-15T11:52:15.209Z,18.57
2022-11-15T11:54:51.053Z,18.68
2022-11-15T11:57:56.597Z,18.85
2022-11-15T12:00:25.022Z,19.00
2022-11-15T12:03:13.343Z,19.11
2022-11-15T12:05:46.097Z,19.23
2022-11-15T12:08:37.994Z,19.33
2022-11-15T12:11:14.821Z,19.43
2022-11-15T12:13:41.588Z,19.46
2022-11-15T12:16:25.183Z,19.52
2022-11-15T12:18:54.553Z,19.55
2022-11-15T12:21:31.756Z,19.53
2022-11-15T12:24:44.441Z,19.41
2022-11-15T12:27:26.279Z,19.24
2022-11-15T12:30:00.098Z,19.13
2022-11-15T12:32:33.782Z,19.12
2022-11-15T12:35:02.250Z,19.20
2022-11-15T12:37:48.485Z,19.20
2022-11-15T12:40:20.526Z,19.18
2022-11-15T12:43:05.223Z,19.14
2022-11-15T12:45:36.293Z,19.09
2022-11-15T12:48:18.046Z,19.05
2022-11-15T12:50:56.724Z,18.99
2022-11-15T12:53:26.374Z,18.88
2022-11-15T12:56:21.316Z,18.81
2022-11-15T12:58:52.663Z,18.73
2022-11-15T13:01:34.978Z,18.50
2022-11-15T13:04:20.317Z,18.43
2022-11-15T13:06:51.132Z,18.37
2022-11-15T13:09:33.403Z,18.35
2022-11-15T13:12:23.228Z,18.23
2022-11-15T13:14:55.802Z,18.23
2022-11-15T13:17:22.587Z,18.28
2022-11-15T13:20:01.560Z,18.36
2022-11-15T13:22:47.830Z,18.41
2022-11-15T13:25:20.213Z,18.42
2022-11-15T13:27:49.180Z,18.46
2022-11-15T13:30:24.425Z,18.49
2022-11-15T13:32:51.482Z,18.49
2022-11-15T13:35:26.791Z,18.58
2022-11-15T13:37:55.270Z,18.74
2022-11-15T13:40:32.079Z,18.78
2022-11-15T13:42:59.331Z,18.70
2022-11-15T13:45:27.500Z,18.72
2022-11-15T13:47:57.481Z,18.84
2022-11-15T13:50:30.404Z,18.83
2022-11-15T13:53:17.256Z,18.88
2022-11-15T13:55:47.486Z,18.81
2022-11-15T13:58:14.900Z,18.71
2022-11-15T14:00:46.548Z,18.61
2022-11-15T14:03:24.434Z,18.53
2022-11-15T14:06:21.948Z,18.52
2022-11-15T14:09:01.110Z,18.49
2022-11-15T14:11:28.161Z,18.41
2022-11-15T14:14:08.752Z,18.21
2022-11-15T14:16:37.730Z,18.11
2022-11-15T14:19:06.004Z,18.06
2022-11-15T14:21:33.178Z,18.05
2022-11-15T14:24:17.733Z,18.08
2022-11-15T14:26:48.043Z,18.05
2022-11-15T14:29:28.790Z,18.00
2022-11-15T14:32:13.347Z,17.90
2022-11-15T14:34:40.070Z,17.79
2022-11-15T14:37:14.077Z,17.67
2022-11-15T14:39:43.854Z,17.65
2022-11-15T14:42:10.731Z,17.62
2022-11-15T14:44:41.152Z,17.63
2022-11-15T14:47:11.911Z,17.65
2022-11-15T14:49:38.707Z,17.57
2022-11-15T14:52:35.241Z,17.57
2022-11-15T14:55:04.049Z,17.55
2022-11-15T14:57:31.822Z,17.52
2022-11-15T14:59:58.598Z,17.45
2022-11-15T15:02:39.227Z,17.40
2022-11-15T15:05:24.259Z,17.38
2022-11-15T15:07:52.680Z,17.31
2022-11-15T15:13:09.597Z,17.23
2022-11-15T15:15:38.003Z,17.13
2022-11-15T15:18:05.923Z,17.08
2022-11-15T15:20:36.482Z,17.09
2022-11-15T15:23:03.175Z,17.08
2022-11-15T15:25:35.741Z,17.02
2022-11-15T15:28:03.084Z,17.00
2022-11-15T15:30:31.359Z,16.95
2022-11-15T15:32:59.159Z,16.92
2022-11-15T15:35:31.143Z,16.86
2022-11-15T15:37:58.266Z,16.83
2022-11-15T15:40:26.026Z,16.80
2022-11-15T15:42:53.193Z,16.71
2022-11-15T15:45:20.189Z,16.68
2022-11-15T15:47:47.728Z,16.66
2022-11-15T15:50:23.619Z,16.60
2022-11-15T15:52:54.734Z,16.52
2022-11-15T15:55:21.958Z,16.47
2022-11-15T15:57:49.090Z,16.44
2022-11-15T16:00:16.371Z,16.43
2022-11-15T16:02:43.288Z,16.39
2022-11-15T16:05:11.049Z,16.37
2022-11-15T16:07:38.947Z,16.36
2022-11-15T16:10:23.916Z,16.26
2022-11-15T16:12:50.798Z,16.19
2022-11-15T16:15:17.837Z,16.22
2022-11-15T16:17:55.771Z,16.29
2022-11-15T16:20:36.194Z,16.37
2022-11-15T16:23:09.067Z,16.43
2022-11-15T16:25:39.656Z,16.50
2022-11-15T16:28:23.553Z,16.56
2022-11-15T16:30:59.809Z,16.61
2022-11-15T16:33:26.576Z,16.65
2022-11-15T16:35:53.723Z,16.68
2022-11-15T16:38:22.237Z,16.71
2022-11-15T16:40:50.239Z,16.72
2022-11-15T16:43:19.185Z,16.76
2022-11-15T16:45:46.682Z,16.78
2022-11-15T16:48:32.254Z,16.81
2022-11-15T16:51:01.159Z,16.84
2022-11-15T16:53:28.505Z,16.83
2022-11-15T16:55:57.165Z,16.85
2022-11-15T16:58:25.277Z,16.87
2022-11-15T17:00:57.677Z,16.87
2022-11-15T17:03:25.215Z,16.90
2022-11-15T17:05:52.924Z,16.90
2022-11-15T17:08:22.091Z,16.90
2022-11-15T17:10:49.009Z,16.91
2022-11-15T17:13:15.742Z,16.91
2022-11-15T17:15:42.595Z,16.93
2022-11-15T17:18:13.149Z,16.91
2022-11-15T17:20:40.318Z,17.01
2022-11-15T17:23:12.275Z,16.97
2022-11-15T17:25:39.012Z,16.95
2022-11-15T17:28:05.672Z,16.94
2022-11-15T17:30:33.380Z,16.94
2022-11-15T17:33:01.051Z,16.92
2022-11-15T17:35:27.898Z,16.94
2022-11-15T17:37:54.942Z,16.93
2022-11-15T17:40:21.712Z,16.93
2022-11-15T17:42:48.443Z,16.92
2022-11-15T17:45:15.295Z,16.93
2022-11-15T17:47:42.009Z,16.94
2022-11-15T17:50:09.494Z,16.93
2022-11-15T17:52:37.442Z,16.94
2022-11-15T17:55:04.466Z,16.94
2022-11-15T17:57:32.185Z,16.94
2022-11-15T17:59:59.076Z,16.93
2022-11-15T18:02:25.731Z,16.93
2022-11-15T18:04:52.487Z,16.94
2022-11-15T18:07:19.340Z,16.93
2022-11-15T18:09:46.178Z,16.93
2022-11-15T18:12:13.041Z,16.92
2022-11-15T18:14:39.913Z,16.92
2022-11-15T18:17:06.646Z,16.92
2022-11-15T18:19:33.761Z,16.93
2022-11-15T18:22:01.418Z,16.94
2022-11-15T18:24:33.522Z,16.94
2022-11-15T18:27:01.734Z,16.96
2022-11-15T18:29:28.514Z,16.97
2022-11-15T18:31:55.895Z,16.95
2022-11-15T18:34:24.006Z,16.95
2022-11-15T18:36:52.404Z,16.95
2022-11-15T18:39:19.352Z,16.95
2022-11-15T18:41:49.334Z,16.95
2022-11-15T18:45:12.630Z,16.95
2022-11-15T18:47:40.595Z,16.98
2022-11-15T18:50:07.634Z,16.94
2022-11-15T18:52:34.335Z,16.93
2022-11-15T18:55:01.313Z,16.92
2022-11-15T18:57:28.094Z,16.91
2022-11-15T18:59:54.890Z,16.90
2022-11-15T19:02:21.551Z,16.89
2022-11-15T19:04:49.642Z,16.86
2022-11-15T19:07:16.610Z,16.88
2022-11-15T19:09:43.352Z,16.88
2022-11-15T19:12:10.139Z,16.88
2022-11-15T19:14:36.873Z,16.87
2022-11-15T19:17:03.573Z,16.86
2022-11-15T19:19:30.378Z,16.88
2022-11-15T19:21:59.866Z,16.86
2022-11-15T19:24:27.349Z,16.87
2022-11-15T19:26:54.921Z,16.85
2022-11-15T19:29:21.718Z,16.84
2022-11-15T19:31:48.846Z,16.84
2022-11-15T19:34:15.721Z,16.82
2022-11-15T19:36:47.539Z,16.81
2022-11-15T19:39:15.202Z,16.82
2022-11-15T19:41:43.310Z,16.81
2022-11-15T19:44:11.262Z,16.80
2022-11-15T19:46:38.955Z,16.79
2022-11-15T19:49:07.868Z,16.76
2022-11-15T19:51:49.586Z,16.76
2022-11-15T19:54:18.918Z,16.76
2022-11-15T19:56:48.362Z,16.75
2022-11-15T19:59:15.282Z,16.75
2022-11-15T20:01:45.646Z,16.75
2022-11-15T20:04:12.410Z,16.75
2022-11-15T20:06:41.627Z,16.73
2022-11-15T20:09:12.463Z,16.73
2022-11-15T20:11:39.521Z,16.74
2022-11-15T20:14:08.196Z,16.72
2022-11-15T20:16:38.371Z,16.72
2022-11-15T20:19:05.442Z,16.73
2022-11-15T20:21:32.436Z,16.73
2022-11-15T20:23:59.198Z,16.72
2022-11-15T20:26:26.016Z,16.72
2022-11-15T20:28:55.845Z,16.73
2022-11-15T20:31:23.517Z,16.73
2022-11-15T20:33:50.245Z,16.73
2022-11-15T20:36:17.397Z,16.72
2022-11-15T20:38:45.006Z,16.72
2022-11-15T20:41:13.032Z,16.71
2022-11-15T20:43:43.413Z,16.73
2022-11-15T20:46:11.909Z,16.72
2022-11-15T20:48:39.106Z,16.72
2022-11-15T20:51:09.522Z,16.72
2022-11-15T20:53:36.283Z,16.73
2022-11-15T20:56:07.949Z,16.71
2022-11-15T20:58:37.084Z,16.72
2022-11-15T21:01:05.536Z,16.72
2022-11-15T21:03:33.264Z,16.71
2022-11-15T21:06:00.489Z,16.71
2022-11-15T21:08:27.500Z,16.73
2022-11-15T21:11:13.348Z,16.71
2022-11-15T21:13:40.146Z,16.74
2022-11-15T21:16:07.344Z,16.73
2022-11-15T21:18:34.424Z,16.72
2022-11-15T21:21:05.611Z,16.72
2022-11-15T21:23:32.493Z,16.71
2022-11-15T21:25:59.189Z,16.72
2022-11-15T21:28:25.976Z,16.71
2022-11-15T21:30:57.453Z,16.69
2022-11-15T21:33:27.254Z,16.70
2022-11-15T21:35:55.148Z,16.71
2022-11-15T21:38:23.729Z,16.70
2022-11-15T21:40:51.619Z,16.69
2022-11-15T21:43:18.967Z,16.69
2022-11-15T21:46:00.374Z,16.68
2022-11-15T21:48:28.259Z,16.69
2022-11-15T21:50:59.781Z,16.68
2022-11-15T21:53:27.131Z,16.69
2022-11-15T21:55:54.053Z,16.69
2022-11-15T21:58:22.186Z,16.69
2022-11-15T22:01:08.690Z,16.68
2022-11-15T22:03:35.816Z,16.68
2022-11-15T22:06:02.493Z,16.68
2022-11-15T22:08:29.440Z,16.67
2022-11-15T22:10:56.863Z,16.67
2022-11-15T22:13:24.630Z,16.66
2022-11-15T22:15:51.782Z,16.67
2022-11-15T22:18:26.167Z,16.66
2022-11-15T22:21:03.925Z,16.67
2022-11-15T22:23:32.005Z,16.65
2022-11-15T22:25:59.343Z,16.65
2022-11-15T22:28:26.326Z,16.64
2022-11-15T22:30:54.194Z,16.63
2022-11-15T22:33:22.927Z,16.63
2022-11-15T22:35:49.825Z,16.64
2022-11-15T22:38:16.713Z,16.64
2022-11-15T22:40:43.693Z,16.64
2022-11-15T22:43:12.618Z,16.63
2022-11-15T22:45:49.190Z,16.62
2022-11-15T22:48:16.776Z,16.64
2022-11-15T22:50:43.901Z,16.64
2022-11-15T22:53:11.029Z,16.63
2022-11-15T22:55:38.777Z,16.63
2022-11-15T22:58:05.538Z,16.64
2022-11-15T23:00:32.157Z,16.63
2022-11-15T23:02:58.885Z,16.63
2022-11-15T23:05:25.525Z,16.63
2022-11-15T23:07:52.275Z,16.63
2022-11-15T23:10:37.544Z,16.63
2022-11-15T23:13:17.229Z,16.63
2022-11-15T23:16:07.753Z,16.62
2022-11-15T23:18:35.401Z,16.72
2022-11-15T23:21:14.048Z,16.65
2022-11-15T23:23:40.830Z,16.63
2022-11-15T23:26:07.927Z,16.62
2022-11-15T23:28:35.272Z,16.62
2022-11-15T23:31:24.589Z,16.60
2022-11-15T23:33:57.323Z,16.61
2022-11-15T23:36:28.777Z,16.60
2022-11-15T23:38:55.864Z,16.60
2022-11-15T23:41:23.856Z,16.59
2022-11-15T23:43:51.849Z,16.59
2022-11-15T23:46:18.592Z,16.60
2022-11-15T23:48:45.386Z,16.59
2022-11-15T23:51:12.196Z,16.58
2022-11-15T23:53:39.018Z,16.58
2022-11-15T23:56:16.757Z,16.57
2022-11-15T23:58:43.925Z,16.58
